sensor_id;sensor_type;location;lat;lon;timestamp;pressure;altitude;pressure_sealevel;temperature;humidity
72570;BME280;60594;50.204;8.844;2023-04-24T00:01:23;98804.41;;;11.23;89.74
72570;BME280;60594;50.204;8.844;2023-04-24T00:03:50;98800.44;;;11.27;89.37
72570;BME280;60594;50.204;8.844;2023-04-24T00:06:16;98801.41;;;11.26;89.73
72570;BME280;60594;50.204;8.844;2023-04-24T00:08:44;98799.75;;;11.25;90.00
72570;BME280;60594;50.204;8.844;2023-04-24T00:11:10;98799.06;;;11.23;89.95
72570;BME280;60594;50.204;8.844;2023-04-24T00:13:37;98791.91;;;11.24;89.94
72570;BME280;60594;50.204;8.844;2023-04-24T00:16:07;98801.09;;;11.29;89.94
72570;BME280;60594;50.204;8.844;2023-04-24T00:18:34;98788.59;;;11.30;89.67
72570;BME280;60594;50.204;8.844;2023-04-24T00:21:00;98786.09;;;11.28;89.99
72570;BME280;60594;50.204;8.844;2023-04-24T00:23:27;98789.94;;;11.26;89.91
72570;BME280;60594;50.204;8.844;2023-04-24T00:25:54;98783.06;;;11.23;90.32
72570;BME280;60594;50.204;8.844;2023-04-24T00:28:21;98788.94;;;11.27;89.37
72570;BME280;60594;50.204;8.844;2023-04-24T00:30:47;98781.09;;;11.25;90.51
72570;BME280;60594;50.204;8.844;2023-04-24T00:33:14;98770.91;;;11.21;90.67
72570;BME280;60594;50.204;8.844;2023-04-24T00:35:42;98781.72;;;11.19;90.91
72570;BME280;60594;50.204;8.844;2023-04-24T00:38:09;98778.25;;;11.19;91.33
72570;BME280;60594;50.204;8.844;2023-04-24T00:40:35;98775.72;;;11.17;91.52
72570;BME280;60594;50.204;8.844;2023-04-24T00:43:02;98772.22;;;11.17;91.15
72570;BME280;60594;50.204;8.844;2023-04-24T00:45:28;98763.22;;;11.18;91.70
72570;BME280;60594;50.204;8.844;2023-04-24T00:47:57;98770.41;;;11.17;90.90
72570;BME280;60594;50.204;8.844;2023-04-24T00:50:25;98764.75;;;11.20;91.10
72570;BME280;60594;50.204;8.844;2023-04-24T00:52:53;98753.56;;;11.17;91.17
72570;BME280;60594;50.204;8.844;2023-04-24T00:55:20;98757.88;;;11.18;91.49
72570;BME280;60594;50.204;8.844;2023-04-24T00:57:48;98761.53;;;11.17;91.42
72570;BME280;60594;50.204;8.844;2023-04-24T01:00:15;98751.41;;;11.20;91.08
72570;BME280;60594;50.204;8.844;2023-04-24T01:02:45;98747.75;;;11.21;90.55
72570;BME280;60594;50.204;8.844;2023-04-24T01:05:13;98746.41;;;11.17;91.59
72570;BME280;60594;50.204;8.844;2023-04-24T01:07:41;98743.19;;;11.14;92.40
72570;BME280;60594;50.204;8.844;2023-04-24T01:10:15;98748.19;;;11.09;92.34
72570;BME280;60594;50.204;8.844;2023-04-24T01:12:46;98745.19;;;11.04;92.90
72570;BME280;60594;50.204;8.844;2023-04-24T01:15:12;98745.66;;;10.99;92.78
72570;BME280;60594;50.204;8.844;2023-04-24T01:17:39;98746.16;;;11.03;92.32
72570;BME280;60594;50.204;8.844;2023-04-24T01:20:06;98741.00;;;11.01;91.90
72570;BME280;60594;50.204;8.844;2023-04-24T01:22:34;98744.03;;;11.06;92.39
72570;BME280;60594;50.204;8.844;2023-04-24T01:25:01;98741.69;;;11.11;91.89
72570;BME280;60594;50.204;8.844;2023-04-24T01:27:30;98734.88;;;11.09;91.56
72570;BME280;60594;50.204;8.844;2023-04-24T01:29:57;98744.03;;;11.06;92.90
72570;BME280;60594;50.204;8.844;2023-04-24T01:32:24;98739.00;;;11.03;92.92
72570;BME280;60594;50.204;8.844;2023-04-24T01:34:51;98739.16;;;11.02;92.78
72570;BME280;60594;50.204;8.844;2023-04-24T01:37:18;98741.22;;;11.08;90.66
72570;BME280;60594;50.204;8.844;2023-04-24T01:39:44;98743.72;;;11.09;90.82
72570;BME280;60594;50.204;8.844;2023-04-24T01:42:12;98738.00;;;11.04;90.66
72570;BME280;60594;50.204;8.844;2023-04-24T01:44:42;98737.66;;;10.99;92.79
72570;BME280;60594;50.204;8.844;2023-04-24T01:47:10;98746.81;;;10.97;92.70
72570;BME280;60594;50.204;8.844;2023-04-24T01:49:38;98750.66;;;10.94;92.00
72570;BME280;60594;50.204;8.844;2023-04-24T01:52:05;98742.66;;;10.94;92.25
72570;BME280;60594;50.204;8.844;2023-04-24T01:54:33;98737.66;;;10.91;92.78
72570;BME280;60594;50.204;8.844;2023-04-24T01:57:02;98740.94;;;10.85;92.99
72570;BME280;60594;50.204;8.844;2023-04-24T01:59:29;98741.94;;;10.84;93.84
72570;BME280;60594;50.204;8.844;2023-04-24T02:01:56;98739.44;;;10.83;93.78
72570;BME280;60594;50.204;8.844;2023-04-24T02:04:22;98735.94;;;10.82;94.49
72570;BME280;60594;50.204;8.844;2023-04-24T02:06:49;98735.44;;;10.79;94.33
72570;BME280;60594;50.204;8.844;2023-04-24T02:09:16;98725.78;;;10.86;93.98
72570;BME280;60594;50.204;8.844;2023-04-24T02:11:42;98721.13;;;10.88;93.31
72570;BME280;60594;50.204;8.844;2023-04-24T02:14:09;98714.28;;;10.85;93.51
72570;BME280;60594;50.204;8.844;2023-04-24T02:16:35;98725.78;;;10.86;93.07
72570;BME280;60594;50.204;8.844;2023-04-24T02:19:03;98721.13;;;10.88;92.43
72570;BME280;60594;50.204;8.844;2023-04-24T02:21:34;98716.97;;;10.93;92.11
72570;BME280;60594;50.204;8.844;2023-04-24T02:24:02;98721.84;;;10.98;91.42
72570;BME280;60594;50.204;8.844;2023-04-24T02:26:31;98711.66;;;11.01;90.01
72570;BME280;60594;50.204;8.844;2023-04-24T02:28:57;98713.69;;;11.07;89.40
72570;BME280;60594;50.204;8.844;2023-04-24T02:31:24;98722.56;;;11.16;88.04
72570;BME280;60594;50.204;8.844;2023-04-24T02:33:51;98723.06;;;11.19;88.15
72570;BME280;60594;50.204;8.844;2023-04-24T02:36:18;98716.22;;;11.25;86.36
72570;BME280;60594;50.204;8.844;2023-04-24T02:38:44;98719.91;;;11.24;86.78
72570;BME280;60594;50.204;8.844;2023-04-24T02:41:13;98727.56;;;11.19;87.76
72570;BME280;60594;50.204;8.844;2023-04-24T02:43:39;98726.56;;;11.20;86.76
72570;BME280;60594;50.204;8.844;2023-04-24T02:46:06;98718.56;;;11.20;88.02
72570;BME280;60594;50.204;8.844;2023-04-24T02:48:33;98720.06;;;11.14;88.74
72570;BME280;60594;50.204;8.844;2023-04-24T02:51:00;98718.88;;;11.17;87.52
72570;BME280;60594;50.204;8.844;2023-04-24T02:53:26;98723.19;;;11.10;88.99
72570;BME280;60594;50.204;8.844;2023-04-24T02:55:53;98732.19;;;11.01;88.69
72570;BME280;60594;50.204;8.844;2023-04-24T02:58:20;98722.00;;;10.96;89.52
72570;BME280;60594;50.204;8.844;2023-04-24T03:00:47;98726.50;;;10.96;90.03
72570;BME280;60594;50.204;8.844;2023-04-24T03:03:14;98731.75;;;10.80;90.76
72570;BME280;60594;50.204;8.844;2023-04-24T03:05:42;98736.31;;;10.87;90.33
72570;BME280;60594;50.204;8.844;2023-04-24T03:08:08;98745.06;;;10.80;90.94
72570;BME280;60594;50.204;8.844;2023-04-24T03:10:35;98745.53;;;10.75;90.98
72570;BME280;60594;50.204;8.844;2023-04-24T03:13:02;98746.88;;;10.71;91.53
72570;BME280;60594;50.204;8.844;2023-04-24T03:15:28;98741.59;;;10.79;91.09
72570;BME280;60594;50.204;8.844;2023-04-24T03:17:56;98746.38;;;10.68;91.93
72570;BME280;60594;50.204;8.844;2023-04-24T03:20:23;98737.38;;;10.69;91.32
72570;BME280;60594;50.204;8.844;2023-04-24T03:22:49;98746.38;;;10.68;91.69
72570;BME280;60594;50.204;8.844;2023-04-24T03:25:17;98741.50;;;10.63;91.89
72570;BME280;60594;50.204;8.844;2023-04-24T03:27:43;98733.00;;;10.60;92.60
72570;BME280;60594;50.204;8.844;2023-04-24T03:30:28;98751.69;;;10.68;92.10
72570;BME280;60594;50.204;8.844;2023-04-24T03:32:59;98758.84;;;10.67;92.36
72570;BME280;60594;50.204;8.844;2023-04-24T03:35:30;98750.47;;;10.54;92.83
72570;BME280;60594;50.204;8.844;2023-04-24T03:38:01;98752.63;;;10.59;92.73
72570;BME280;60594;50.204;8.844;2023-04-24T03:40:46;98755.63;;;10.56;92.74
72570;BME280;60594;50.204;8.844;2023-04-24T03:43:37;98754.31;;;10.60;93.17
72570;BME280;60594;50.204;8.844;2023-04-24T03:46:06;98756.16;;;10.67;92.58
72570;BME280;60594;50.204;8.844;2023-04-24T03:48:38;98761.47;;;10.59;92.99
72570;BME280;60594;50.204;8.844;2023-04-24T03:51:06;98771.28;;;10.59;92.62
72570;BME280;60594;50.204;8.844;2023-04-24T03:53:35;98772.13;;;10.59;92.98
72570;BME280;60594;50.204;8.844;2023-04-24T03:56:02;98775.91;;;10.49;93.26
72570;BME280;60594;50.204;8.844;2023-04-24T03:58:30;98772.22;;;10.50;93.27
72570;BME280;60594;50.204;8.844;2023-04-24T04:00:57;98771.72;;;10.46;93.10
72570;BME280;60594;50.204;8.844;2023-04-24T04:03:42;98776.88;;;10.48;93.05
72570;BME280;60594;50.204;8.844;2023-04-24T04:06:10;98782.03;;;10.49;93.22
72570;BME280;60594;50.204;8.844;2023-04-24T04:08:41;98784.34;;;10.44;93.74
72570;BME280;60594;50.204;8.844;2023-04-24T04:11:08;98784.84;;;10.48;93.72
72570;BME280;60594;50.204;8.844;2023-04-24T04:13:35;98780.69;;;10.45;93.58
72570;BME280;60594;50.204;8.844;2023-04-24T04:16:22;98790.44;;;10.36;94.28
72570;BME280;60594;50.204;8.844;2023-04-24T04:18:53;98792.44;;;10.34;94.82
72570;BME280;60594;50.204;8.844;2023-04-24T04:21:20;98793.53;;;10.24;95.42
72570;BME280;60594;50.204;8.844;2023-04-24T04:23:49;98786.75;;;10.29;95.61
72570;BME280;60594;50.204;8.844;2023-04-24T04:26:20;98792.28;;;10.36;94.70
72570;BME280;60594;50.204;8.844;2023-04-24T04:29:01;98797.81;;;10.43;94.69
72570;BME280;60594;50.204;8.844;2023-04-24T04:31:30;98798.66;;;10.43;94.77
72570;BME280;60594;50.204;8.844;2023-04-24T04:34:00;98794.94;;;10.36;94.59
72570;BME280;60594;50.204;8.844;2023-04-24T04:36:28;98810.63;;;10.39;92.56
72570;BME280;60594;50.204;8.844;2023-04-24T04:39:02;98808.88;;;10.30;92.26
72570;BME280;60594;50.204;8.844;2023-04-24T04:41:56;98818.28;;;10.42;89.04
72570;BME280;60594;50.204;8.844;2023-04-24T04:44:27;98811.75;;;10.36;89.90
72570;BME280;60594;50.204;8.844;2023-04-24T04:46:54;98815.63;;;10.42;84.77
72570;BME280;60594;50.204;8.844;2023-04-24T04:49:32;98812.59;;;10.37;83.52
72570;BME280;60594;50.204;8.844;2023-04-24T04:51:59;98827.38;;;10.31;83.56
72570;BME280;60594;50.204;8.844;2023-04-24T04:54:27;98826.69;;;10.12;82.31
72570;BME280;60594;50.204;8.844;2023-04-24T04:56:54;98825.25;;;10.17;80.14
72570;BME280;60594;50.204;8.844;2023-04-24T04:59:21;98833.88;;;10.11;78.24
72570;BME280;60594;50.204;8.844;2023-04-24T05:01:51;98829.41;;;10.02;72.80
72570;BME280;60594;50.204;8.844;2023-04-24T05:04:18;98834.59;;;10.04;71.31
72570;BME280;60594;50.204;8.844;2023-04-24T05:06:45;98843.31;;;10.06;70.95
72570;BME280;60594;50.204;8.844;2023-04-24T05:09:14;98840.06;;;10.02;72.08
72570;BME280;60594;50.204;8.844;2023-04-24T05:11:50;98846.06;;;10.04;72.21
72570;BME280;60594;50.204;8.844;2023-04-24T05:14:17;98841.06;;;10.01;72.64
72570;BME280;60594;50.204;8.844;2023-04-24T05:16:44;98857.88;;;10.02;73.08
72570;BME280;60594;50.204;8.844;2023-04-24T05:19:13;98857.19;;;10.00;74.00
72570;BME280;60594;50.204;8.844;2023-04-24T05:21:43;98856.19;;;10.01;74.26
72570;BME280;60594;50.204;8.844;2023-04-24T05:24:13;98854.81;;;9.97;74.70
72570;BME280;60594;50.204;8.844;2023-04-24T05:27:06;98861.84;;;9.98;75.12
72570;BME280;60594;50.204;8.844;2023-04-24T05:29:38;98862.28;;;9.93;75.75
72570;BME280;60594;50.204;8.844;2023-04-24T05:32:06;98856.25;;;9.91;76.62
72570;BME280;60594;50.204;8.844;2023-04-24T05:34:33;98860.28;;;9.95;76.45
72570;BME280;60594;50.204;8.844;2023-04-24T05:37:00;98862.50;;;10.00;77.68
72570;BME280;60594;50.204;8.844;2023-04-24T05:39:26;98873.69;;;10.03;78.08
72570;BME280;60594;50.204;8.844;2023-04-24T05:41:54;98871.47;;;9.99;78.88
72570;BME280;60594;50.204;8.844;2023-04-24T05:44:24;98879.72;;;10.05;79.10
72570;BME280;60594;50.204;8.844;2023-04-24T05:46:51;98878.03;;;10.04;78.59
72570;BME280;60594;50.204;8.844;2023-04-24T05:49:18;98892.78;;;9.99;80.50
72570;BME280;60594;50.204;8.844;2023-04-24T05:51:45;98899.06;;;10.07;79.77
72570;BME280;60594;50.204;8.844;2023-04-24T05:54:15;98899.47;;;10.03;79.06
72570;BME280;60594;50.204;8.844;2023-04-24T05:56:43;98895.13;;;10.02;79.17
72570;BME280;60594;50.204;8.844;2023-04-24T05:59:13;98894.22;;;9.93;79.10
72570;BME280;60594;50.204;8.844;2023-04-24T06:01:41;98900.19;;;9.95;78.71
72570;BME280;60594;50.204;8.844;2023-04-24T06:04:18;98913.66;;;9.94;77.34
72570;BME280;60594;50.204;8.844;2023-04-24T06:06:45;98911.31;;;9.91;76.34
72570;BME280;60594;50.204;8.844;2023-04-24T06:09:11;98917.53;;;9.82;73.16
72570;BME280;60594;50.204;8.844;2023-04-24T06:11:39;98900.78;;;9.72;70.29
72570;BME280;60594;50.204;8.844;2023-04-24T06:14:07;98900.28;;;9.86;69.23
72570;BME280;60594;50.204;8.844;2023-04-24T06:16:54;98889.13;;;10.00;68.16
72570;BME280;60594;50.204;8.844;2023-04-24T06:19:31;98895.56;;;9.97;67.80
72570;BME280;60594;50.204;8.844;2023-04-24T06:21:58;98913.00;;;9.92;67.99
72570;BME280;60594;50.204;8.844;2023-04-24T06:24:29;98914.34;;;9.78;67.25
72570;BME280;60594;50.204;8.844;2023-04-24T06:26:57;98929.75;;;9.75;69.09
72570;BME280;60594;50.204;8.844;2023-04-24T06:29:25;98923.59;;;9.74;70.58
72570;BME280;60594;50.204;8.844;2023-04-24T06:31:53;98911.75;;;9.69;71.64
72570;BME280;60594;50.204;8.844;2023-04-24T06:34:20;98922.22;;;9.70;72.44
72570;BME280;60594;50.204;8.844;2023-04-24T06:36:48;98919.09;;;9.75;72.36
72570;BME280;60594;50.204;8.844;2023-04-24T06:39:14;98936.72;;;9.85;73.17
72570;BME280;60594;50.204;8.844;2023-04-24T06:41:41;98932.19;;;9.86;71.53
72570;BME280;60594;50.204;8.844;2023-04-24T06:44:10;98949.66;;;9.98;70.47
72570;BME280;60594;50.204;8.844;2023-04-24T06:46:38;98943.78;;;9.94;70.84
72570;BME280;60594;50.204;8.844;2023-04-24T06:49:04;98947.13;;;9.96;71.20
72570;BME280;60594;50.204;8.844;2023-04-24T06:51:31;98940.88;;;9.88;71.63
72570;BME280;60594;50.204;8.844;2023-04-24T06:54:02;98949.66;;;9.98;71.47
72570;BME280;60594;50.204;8.844;2023-04-24T06:56:29;98939.16;;;9.96;71.69
72570;BME280;60594;50.204;8.844;2023-04-24T06:58:55;98946.53;;;10.02;70.19
72570;BME280;60594;50.204;8.844;2023-04-24T07:01:22;98949.19;;;10.02;71.20
72570;BME280;60594;50.204;8.844;2023-04-24T07:03:48;98943.25;;;9.91;70.95
72570;BME280;60594;50.204;8.844;2023-04-24T07:06:15;98956.78;;;9.97;72.05
72570;BME280;60594;50.204;8.844;2023-04-24T07:08:43;98959.38;;;9.89;71.82
72570;BME280;60594;50.204;8.844;2023-04-24T07:11:10;98956.72;;;9.89;71.70
72570;BME280;60594;50.204;8.844;2023-04-24T07:13:37;98948.66;;;9.99;71.80
72570;BME280;60594;50.204;8.844;2023-04-24T07:16:08;98936.97;;;10.09;70.99
72570;BME280;60594;50.204;8.844;2023-04-24T07:18:34;98917.75;;;9.88;70.88
72570;BME280;60594;50.204;8.844;2023-04-24T07:21:04;98921.97;;;9.91;71.14
72570;BME280;60594;50.204;8.844;2023-04-24T07:23:30;98912.00;;;9.93;69.56
72570;BME280;60594;50.204;8.844;2023-04-24T07:26:00;98927.03;;;10.11;70.93
72570;BME280;60594;50.204;8.844;2023-04-24T07:28:27;98944.81;;;10.28;70.00
72570;BME280;60594;50.204;8.844;2023-04-24T07:30:58;98934.09;;;10.38;68.99
72570;BME280;60594;50.204;8.844;2023-04-24T07:33:26;98924.81;;;10.42;69.22
72570;BME280;60594;50.204;8.844;2023-04-24T07:35:53;98936.59;;;10.39;69.82
72570;BME280;60594;50.204;8.844;2023-04-24T07:38:19;98945.38;;;10.50;70.80
72570;BME280;60594;50.204;8.844;2023-04-24T07:40:49;98939.59;;;10.54;68.40
72570;BME280;60594;50.204;8.844;2023-04-24T07:43:17;98941.75;;;10.59;68.90
72570;BME280;60594;50.204;8.844;2023-04-24T07:45:43;98927.16;;;10.45;68.99
72570;BME280;60594;50.204;8.844;2023-04-24T07:48:10;98911.44;;;10.52;69.88
72570;BME280;60594;50.204;8.844;2023-04-24T07:50:36;98928.06;;;10.71;68.84
72570;BME280;60594;50.204;8.844;2023-04-24T07:53:08;98936.19;;;10.70;68.29
72570;BME280;60594;50.204;8.844;2023-04-24T07:55:34;98936.78;;;10.81;68.16
72570;BME280;60594;50.204;8.844;2023-04-24T07:58:01;98945.16;;;10.86;68.31
72570;BME280;60594;50.204;8.844;2023-04-24T08:00:28;98944.28;;;11.03;68.97
72570;BME280;60594;50.204;8.844;2023-04-24T08:02:54;98975.41;;;11.20;69.65
72570;BME280;60594;50.204;8.844;2023-04-24T08:05:21;98951.75;;;11.25;69.42
72570;BME280;60594;50.204;8.844;2023-04-24T08:07:47;98959.53;;;11.44;67.92
72570;BME280;60594;50.204;8.844;2023-04-24T08:10:17;98979.19;;;11.35;67.18
72570;BME280;60594;50.204;8.844;2023-04-24T08:12:44;98957.66;;;11.11;66.53
72570;BME280;60594;50.204;8.844;2023-04-24T08:15:11;98969.53;;;10.91;66.10
72570;BME280;60594;50.204;8.844;2023-04-24T08:17:38;98991.84;;;10.90;68.10
72570;BME280;60594;50.204;8.844;2023-04-24T08:20:05;98968.03;;;10.71;67.66
72570;BME280;60594;50.204;8.844;2023-04-24T08:22:36;98980.94;;;10.84;69.29
72570;BME280;60594;50.204;8.844;2023-04-24T08:25:03;98979.75;;;10.78;68.53
72570;BME280;60594;50.204;8.844;2023-04-24T08:27:33;98992.91;;;10.80;68.86
72570;BME280;60594;50.204;8.844;2023-04-24T08:30:00;98987.75;;;10.78;68.62
72570;BME280;60594;50.204;8.844;2023-04-24T08:32:26;98987.94;;;11.02;67.59
72570;BME280;60594;50.204;8.844;2023-04-24T08:34:57;98982.09;;;11.24;68.00
72570;BME280;60594;50.204;8.844;2023-04-24T08:37:26;98983.97;;;11.32;66.74
72570;BME280;60594;50.204;8.844;2023-04-24T08:39:53;98986.59;;;11.49;66.51
72570;BME280;60594;50.204;8.844;2023-04-24T08:42:20;98982.22;;;11.66;64.50
72570;BME280;60594;50.204;8.844;2023-04-24T08:44:49;98986.28;;;11.86;65.53
72570;BME280;60594;50.204;8.844;2023-04-24T08:47:16;98982.41;;;12.14;66.38
72570;BME280;60594;50.204;8.844;2023-04-24T08:49:44;98995.47;;;12.25;65.39
72570;BME280;60594;50.204;8.844;2023-04-24T08:52:12;98989.97;;;12.34;61.52
72570;BME280;60594;50.204;8.844;2023-04-24T08:54:41;98989.13;;;12.26;62.95
72570;BME280;60594;50.204;8.844;2023-04-24T08:57:10;98982.88;;;12.09;63.12
72570;BME280;60594;50.204;8.844;2023-04-24T08:59:37;98991.03;;;12.00;62.22
72570;BME280;60594;50.204;8.844;2023-04-24T09:02:05;98992.97;;;11.90;63.00
72570;BME280;60594;50.204;8.844;2023-04-24T09:04:33;99000.09;;;11.73;61.84
72570;BME280;60594;50.204;8.844;2023-04-24T09:07:01;98995.41;;;11.50;62.50
72570;BME280;60594;50.204;8.844;2023-04-24T09:09:30;99001.56;;;11.42;62.47
72570;BME280;60594;50.204;8.844;2023-04-24T09:11:59;99003.44;;;11.50;62.56
72570;BME280;60594;50.204;8.844;2023-04-24T09:14:27;99011.75;;;11.47;62.92
72570;BME280;60594;50.204;8.844;2023-04-24T09:16:54;99020.91;;;11.44;63.47
72570;BME280;60594;50.204;8.844;2023-04-24T09:19:20;99020.13;;;11.52;64.26
72570;BME280;60594;50.204;8.844;2023-04-24T09:21:48;99014.41;;;11.47;64.35
72570;BME280;60594;50.204;8.844;2023-04-24T09:24:21;99016.88;;;11.40;63.93
72570;BME280;60594;50.204;8.844;2023-04-24T09:26:57;99023.63;;;11.27;65.81
72570;BME280;60594;50.204;8.844;2023-04-24T09:29:25;99016.19;;;11.13;67.16
72570;BME280;60594;50.204;8.844;2023-04-24T09:31:51;99026.44;;;11.25;67.98
72570;BME280;60594;50.204;8.844;2023-04-24T09:34:22;99040.22;;;11.38;66.56
72570;BME280;60594;50.204;8.844;2023-04-24T09:36:53;99028.00;;;11.36;68.13
72570;BME280;60594;50.204;8.844;2023-04-24T09:39:20;99033.69;;;11.15;67.92
72570;BME280;60594;50.204;8.844;2023-04-24T09:41:54;99038.50;;;11.12;68.90
72570;BME280;60594;50.204;8.844;2023-04-24T09:44:26;99049.41;;;11.01;68.11
72570;BME280;60594;50.204;8.844;2023-04-24T09:46:54;99059.72;;;10.96;68.62
72570;BME280;60594;50.204;8.844;2023-04-24T09:49:27;99056.28;;;10.86;68.96
72570;BME280;60594;50.204;8.844;2023-04-24T09:52:07;99064.13;;;10.87;69.46
72570;BME280;60594;50.204;8.844;2023-04-24T09:54:35;99068.75;;;10.85;69.48
72570;BME280;60594;50.204;8.844;2023-04-24T09:57:03;99062.75;;;11.01;69.76
72570;BME280;60594;50.204;8.844;2023-04-24T09:59:30;99058.41;;;11.00;69.10
72570;BME280;60594;50.204;8.844;2023-04-24T10:01:56;99071.41;;;11.03;68.91
72570;BME280;60594;50.204;8.844;2023-04-24T10:04:28;99078.81;;;11.09;69.83
72570;BME280;60594;50.204;8.844;2023-04-24T10:06:57;99068.97;;;10.92;69.67
72570;BME280;60594;50.204;8.844;2023-04-24T10:09:26;99080.03;;;10.97;69.12
72570;BME280;60594;50.204;8.844;2023-04-24T10:11:53;99076.53;;;10.79;69.75
72570;BME280;60594;50.204;8.844;2023-04-24T10:14:22;99074.53;;;10.63;69.65
72570;BME280;60594;50.204;8.844;2023-04-24T10:16:51;99091.22;;;10.83;70.31
72570;BME280;60594;50.204;8.844;2023-04-24T10:19:19;99077.53;;;10.78;69.87
72570;BME280;60594;50.204;8.844;2023-04-24T10:21:46;99091.06;;;10.84;69.83
72570;BME280;60594;50.204;8.844;2023-04-24T10:24:15;99082.00;;;10.77;71.51
72570;BME280;60594;50.204;8.844;2023-04-24T10:26:45;99097.94;;;10.87;70.86
72570;BME280;60594;50.204;8.844;2023-04-24T10:29:14;99096.63;;;10.91;72.85
72570;BME280;60594;50.204;8.844;2023-04-24T10:31:41;99090.22;;;11.01;72.09
72570;BME280;60594;50.204;8.844;2023-04-24T10:34:10;99099.38;;;10.99;72.19
72570;BME280;60594;50.204;8.844;2023-04-24T10:36:39;99105.84;;;10.79;75.02
72570;BME280;60594;50.204;8.844;2023-04-24T10:39:08;99094.09;;;10.72;75.43
72570;BME280;60594;50.204;8.844;2023-04-24T10:41:37;99119.91;;;10.71;75.59
72570;BME280;60594;50.204;8.844;2023-04-24T10:44:12;99131.94;;;10.75;75.27
72570;BME280;60594;50.204;8.844;2023-04-24T10:46:45;99119.91;;;10.71;77.07
72570;BME280;60594;50.204;8.844;2023-04-24T10:49:13;99123.53;;;10.53;80.12
72570;BME280;60594;50.204;8.844;2023-04-24T10:51:50;99133.69;;;10.39;81.88
72570;BME280;60594;50.204;8.844;2023-04-24T10:55:02;99137.44;;;10.19;83.35
72570;BME280;60594;50.204;8.844;2023-04-24T10:57:28;99144.19;;;10.04;87.59
72570;BME280;60594;50.204;8.844;2023-04-24T11:00:14;99137.78;;;9.97;87.23
72570;BME280;60594;50.204;8.844;2023-04-24T11:02:42;99150.22;;;9.97;89.56
72570;BME280;60594;50.204;8.844;2023-04-24T11:05:15;99136.63;;;10.00;93.62
72570;BME280;60594;50.204;8.844;2023-04-24T11:10:55;99133.75;;;10.57;90.84
72570;BME280;60594;50.204;8.844;2023-04-24T11:13:24;99133.72;;;10.84;89.12
72570;BME280;60594;50.204;8.844;2023-04-24T11:16:11;99143.19;;;11.31;86.56
72570;BME280;60594;50.204;8.844;2023-04-24T11:18:43;99141.13;;;11.08;85.36
72570;BME280;60594;50.204;8.844;2023-04-24T11:21:17;99139.28;;;11.08;85.42
72570;BME280;60594;50.204;8.844;2023-04-24T11:23:45;99139.44;;;11.07;84.93
72570;BME280;60594;50.204;8.844;2023-04-24T11:26:21;99136.53;;;11.00;82.58
72570;BME280;60594;50.204;8.844;2023-04-24T11:28:49;99128.31;;;10.94;81.90
72570;BME280;60594;50.204;8.844;2023-04-24T11:31:39;99142.09;;;11.07;82.07
72570;BME280;60594;50.204;8.844;2023-04-24T11:34:12;99140.84;;;11.11;81.26
72570;BME280;60594;50.204;8.844;2023-04-24T11:36:42;99139.91;;;11.02;80.66
72570;BME280;60594;50.204;8.844;2023-04-24T11:39:10;99146.59;;;11.24;79.64
72570;BME280;60594;50.204;8.844;2023-04-24T11:41:37;99148.03;;;11.36;77.22
72570;BME280;60594;50.204;8.844;2023-04-24T11:44:09;99139.44;;;11.42;77.63
72570;BME280;60594;50.204;8.844;2023-04-24T11:46:41;99140.34;;;11.68;76.09
72570;BME280;60594;50.204;8.844;2023-04-24T11:49:07;99138.91;;;12.32;78.23
72570;BME280;60594;50.204;8.844;2023-04-24T11:51:34;99150.63;;;12.81;72.66
72570;BME280;60594;50.204;8.844;2023-04-24T11:54:00;99144.25;;;12.74;68.62
72570;BME280;60594;50.204;8.844;2023-04-24T11:56:27;99153.50;;;12.54;70.00
72570;BME280;60594;50.204;8.844;2023-04-24T11:58:54;99152.09;;;12.34;71.10
72570;BME280;60594;50.204;8.844;2023-04-24T12:01:21;99180.09;;;12.22;69.05
72570;BME280;60594;50.204;8.844;2023-04-24T12:03:49;99168.53;;;12.13;70.65
72570;BME280;60594;50.204;8.844;2023-04-24T12:06:17;99162.34;;;11.87;70.11
72570;BME280;60594;50.204;8.844;2023-04-24T12:08:46;99168.53;;;11.70;71.90
72570;BME280;60594;50.204;8.844;2023-04-24T12:11:15;99164.50;;;11.66;74.34
72570;BME280;60594;50.204;8.844;2023-04-24T12:13:44;99171.72;;;11.91;76.53
72570;BME280;60594;50.204;8.844;2023-04-24T12:16:11;99176.09;;;12.00;72.41
72570;BME280;60594;50.204;8.844;2023-04-24T12:18:42;99170.28;;;12.05;72.60
72570;BME280;60594;50.204;8.844;2023-04-24T12:21:17;99165.88;;;12.21;69.94
72570;BME280;60594;50.204;8.844;2023-04-24T12:23:44;99173.97;;;12.37;71.26
72570;BME280;60594;50.204;8.844;2023-04-24T12:26:16;99171.66;;;12.34;69.43
72570;BME280;60594;50.204;8.844;2023-04-24T12:28:46;99162.28;;;12.30;66.81
72570;BME280;60594;50.204;8.844;2023-04-24T12:31:13;99172.44;;;12.27;67.29
72570;BME280;60594;50.204;8.844;2023-04-24T12:33:40;99172.91;;;12.22;67.92
72570;BME280;60594;50.204;8.844;2023-04-24T12:36:09;99170.38;;;12.21;66.37
72570;BME280;60594;50.204;8.844;2023-04-24T12:38:39;99160.47;;;12.05;67.10
72570;BME280;60594;50.204;8.844;2023-04-24T12:41:12;99175.84;;;11.86;68.92
72570;BME280;60594;50.204;8.844;2023-04-24T12:43:53;99190.28;;;11.40;77.15
72570;BME280;60594;50.204;8.844;2023-04-24T12:46:23;99181.50;;;10.95;82.76
72570;BME280;60594;50.204;8.844;2023-04-24T12:48:49;99178.88;;;10.59;82.97
72570;BME280;60594;50.204;8.844;2023-04-24T12:51:16;99166.13;;;10.35;85.38
72570;BME280;60594;50.204;8.844;2023-04-24T12:53:44;99182.78;;;10.37;85.83
72570;BME280;60594;50.204;8.844;2023-04-24T12:56:13;99182.06;;;10.89;83.82
72570;BME280;60594;50.204;8.844;2023-04-24T12:58:40;99185.47;;;11.09;79.62
72570;BME280;60594;50.204;8.844;2023-04-24T13:01:07;99185.09;;;11.39;77.86
72570;BME280;60594;50.204;8.844;2023-04-24T13:03:34;99182.59;;;11.72;77.42
72570;BME280;60594;50.204;8.844;2023-04-24T13:06:00;99168.38;;;12.15;75.78
72570;BME280;60594;50.204;8.844;2023-04-24T13:08:27;99170.34;;;12.13;75.83
72570;BME280;60594;50.204;8.844;2023-04-24T13:10:54;99178.78;;;12.00;73.66
72570;BME280;60594;50.204;8.844;2023-04-24T13:13:20;99187.72;;;11.91;74.29
72570;BME280;60594;50.204;8.844;2023-04-24T13:15:47;99193.63;;;11.60;75.52